TimeEDT,TemperatureF,Dew PointF,Humidity,Sea Level PressureIn,VisibilityMPH,Wind Direction,Wind SpeedMPH,Gust SpeedMPH,PrecipitationIn,Events,Conditions,WindDirDegrees,DateUTC
12:05 AM,55.4,55.4,100,30.14,10.0,SSE,4.6,-,N/A,,Clear,160,2013-09-20 04:05:00
12:25 AM,55.4,55.4,100,30.14,10.0,SSE,5.8,-,N/A,,Clear,150,2013-09-20 04:25:00
12:45 AM,55.4,55.4,100,30.14,10.0,SSE,5.8,-,N/A,,Clear,160,2013-09-20 04:45:00
1:05 AM,55.4,55.4,100,30.13,10.0,South,5.8,-,N/A,,Clear,170,2013-09-20 05:05:00
1:25 AM,55.4,55.4,100,30.13,10.0,South,4.6,-,N/A,,Clear,180,2013-09-20 05:25:00
1:45 AM,55.4,-9999,N/A,30.13,10.0,South,4.6,-,N/A,,Clear,190,2013-09-20 05:45:00
2:05 AM,55.4,-9999,N/A,30.13,7.0,South,5.8,-,N/A,,Scattered Clouds,190,2013-09-20 06:05:00
2:25 AM,55.4,-9999,N/A,30.13,7.0,South,4.6,-,N/A,,Scattered Clouds,190,2013-09-20 06:25:00
2:45 AM,55.4,-9999,N/A,30.13,7.0,South,3.5,-,N/A,,Mostly Cloudy,170,2013-09-20 06:45:00
3:05 AM,55.4,-9999,N/A,30.13,10.0,South,4.6,-,N/A,,Scattered Clouds,190,2013-09-20 07:05:00
3:25 AM,55.4,-9999,N/A,30.12,10.0,Calm,Calm,-,N/A,,Mostly Cloudy,0,2013-09-20 07:25:00
3:45 AM,57.2,57.2,100,30.13,10.0,South,4.6,-,N/A,,Overcast,190,2013-09-20 07:45:00
4:05 AM,57.2,57.2,100,30.12,10.0,South,4.6,-,N/A,,Overcast,180,2013-09-20 08:05:00
4:25 AM,57.2,57.2,100,30.12,10.0,South,4.6,-,N/A,,Overcast,190,2013-09-20 08:25:00
4:45 AM,59.0,59.0,100,30.12,10.0,South,4.6,-,N/A,,Overcast,190,2013-09-20 08:45:00
5:05 AM,59.0,59.0,100,30.11,10.0,SSW,3.5,-,N/A,,Overcast,200,2013-09-20 09:05:00
5:25 AM,59.0,59.0,100,30.11,10.0,SSW,4.6,-,N/A,,Overcast,200,2013-09-20 09:25:00
5:45 AM,59.0,59.0,100,30.11,10.0,SSW,3.5,-,N/A,,Overcast,200,2013-09-20 09:45:00
6:05 AM,59.0,59.0,100,30.12,7.0,SSW,3.5,-,N/A,,Overcast,200,2013-09-20 10:05:00
6:25 AM,59.0,59.0,100,30.12,7.0,South,3.5,-,N/A,,Overcast,190,2013-09-20 10:25:00
6:45 AM,59.0,59.0,100,30.12,7.0,Calm,Calm,-,N/A,,Overcast,0,2013-09-20 10:45:00
7:05 AM,59.0,-9999,N/A,30.12,7.0,South,3.5,-,N/A,,Mostly Cloudy,170,2013-09-20 11:05:00
7:25 AM,59.0,-9999,N/A,30.12,5.0,South,3.5,-,N/A,,Haze,180,2013-09-20 11:25:00
7:45 AM,59.0,-9999,N/A,30.12,5.0,South,3.5,-,N/A,,Haze,170,2013-09-20 11:45:00
8:05 AM,59.0,-9999,N/A,30.12,4.0,South,3.5,-,N/A,,Haze,170,2013-09-20 12:05:00
8:25 AM,59.0,-9999,N/A,30.12,4.0,South,3.5,-,N/A,,Haze,190,2013-09-20 12:25:00
8:45 AM,60.8,-9999,N/A,30.12,4.0,Calm,Calm,-,N/A,,Haze,0,2013-09-20 12:45:00
9:05 AM,60.8,-9999,N/A,30.12,5.0,South,3.5,-,N/A,,Haze,180,2013-09-20 13:05:00
9:25 AM,60.8,-9999,N/A,30.12,4.0,South,3.5,-,N/A,,Haze,180,2013-09-20 13:25:00
9:45 AM,60.8,-9999,N/A,30.11,5.0,SSE,5.8,-,N/A,,Haze,160,2013-09-20 13:45:00
10:05 AM,60.8,60.8,100,30.11,5.0,South,6.9,-,N/A,,Mostly Cloudy,180,2013-09-20 14:05:00
10:25 AM,64.4,64.4,100,30.11,7.0,South,5.8,-,N/A,,Mostly Cloudy,180,2013-09-20 14:25:00
10:45 AM,68.0,68.0,100,30.10,10.0,South,6.9,-,N/A,,Scattered Clouds,180,2013-09-20 14:45:00
11:05 AM,69.8,64.4,83,30.10,10.0,SSE,5.8,-,N/A,,Mostly Cloudy,150,2013-09-20 15:05:00
11:25 AM,68.0,64.4,88,30.10,10.0,SE,4.6,-,N/A,,Mostly Cloudy,130,2013-09-20 15:25:00
11:45 AM,71.6,64.4,78,30.10,10.0,SSE,4.6,-,N/A,,Clear,150,2013-09-20 15:45:00
12:05 PM,69.8,62.6,78,30.10,10.0,Calm,Calm,-,N/A,,Mostly Cloudy,0,2013-09-20 16:05:00
12:25 PM,69.8,62.6,78,30.10,10.0,SSE,3.5,-,N/A,,Overcast,150,2013-09-20 16:25:00
12:45 PM,69.8,62.6,78,30.10,10.0,Calm,Calm,-,N/A,,Overcast,0,2013-09-20 16:45:00
1:05 PM,69.8,62.6,78,30.09,10.0,Calm,Calm,-,N/A,,Overcast,0,2013-09-20 17:05:00
1:25 PM,71.6,62.6,73,30.09,10.0,Calm,Calm,-,N/A,,Mostly Cloudy,0,2013-09-20 17:25:00
1:45 PM,71.6,62.6,73,30.08,10.0,Calm,Calm,-,N/A,,Overcast,0,2013-09-20 17:45:00
2:05 PM,71.6,62.6,73,30.07,10.0,Calm,Calm,-,N/A,,Mostly Cloudy,0,2013-09-20 18:05:00
2:25 PM,73.4,64.4,73,30.06,10.0,SSW,5.8,-,N/A,,Mostly Cloudy,210,2013-09-20 18:25:00
2:45 PM,71.6,64.4,78,30.06,10.0,SSW,5.8,-,N/A,,Mostly Cloudy,210,2013-09-20 18:45:00
3:05 PM,73.4,62.6,69,30.04,10.0,South,5.8,-,N/A,,Scattered Clouds,180,2013-09-20 19:05:00
3:25 PM,71.6,64.4,78,30.04,10.0,SSE,8.1,-,N/A,,Mostly Cloudy,150,2013-09-20 19:25:00
3:45 PM,68.0,64.4,88,30.04,10.0,ESE,8.1,-,N/A,,Overcast,120,2013-09-20 19:45:00
4:05 PM,66.2,66.2,100,30.04,4.0,NW,5.8,-,N/A,,Overcast,310,2013-09-20 20:05:00
4:25 PM,64.4,64.4,100,30.04,3.0,Calm,Calm,-,N/A,,Overcast,0,2013-09-20 20:25:00
4:45 PM,64.4,64.4,100,30.04,3.0,SSE,4.6,-,N/A,,Overcast,150,2013-09-20 20:45:00
5:05 PM,64.4,64.4,100,30.04,2.5,SE,3.5,-,N/A,,Overcast,130,2013-09-20 21:05:00
5:25 PM,64.4,-9999,N/A,30.03,3.0,SE,5.8,-,N/A,,Overcast,130,2013-09-20 21:25:00
5:45 PM,64.4,64.4,100,30.03,5.0,SSE,8.1,-,N/A,,Overcast,150,2013-09-20 21:45:00
6:05 PM,64.4,64.4,100,30.02,5.0,SE,5.8,-,N/A,,Overcast,130,2013-09-20 22:05:00
6:25 PM,64.4,64.4,100,30.01,7.0,SE,8.1,-,N/A,,Overcast,140,2013-09-20 22:25:00
6:45 PM,64.4,64.4,100,30.01,7.0,SE,6.9,-,N/A,,Overcast,130,2013-09-20 22:45:00
7:05 PM,64.4,64.4,100,30.01,7.0,SE,9.2,-,N/A,,Overcast,140,2013-09-20 23:05:00
7:25 PM,62.6,62.6,100,30.00,10.0,SSE,9.2,-,N/A,,Mostly Cloudy,150,2013-09-20 23:25:00
7:45 PM,62.6,62.6,100,30.00,10.0,SSE,8.1,-,N/A,,Scattered Clouds,160,2013-09-20 23:45:00
8:05 PM,62.6,62.6,100,30.01,10.0,SSE,8.1,-,N/A,,Clear,160,2013-09-21 00:05:00
8:25 PM,62.6,62.6,100,30.01,10.0,SSE,8.1,-,N/A,,Scattered Clouds,150,2013-09-21 00:25:00
8:45 PM,62.6,62.6,100,30.00,7.0,SE,8.1,-,N/A,,Scattered Clouds,140,2013-09-21 00:45:00
9:05 PM,62.6,62.6,100,30.00,7.0,SE,6.9,-,N/A,,Clear,140,2013-09-21 01:05:00
9:25 PM,62.6,-9999,N/A,30.00,7.0,SE,10.4,-,N/A,,Clear,140,2013-09-21 01:25:00
9:45 PM,60.8,-9999,N/A,30.00,7.0,SE,9.2,-,N/A,,Clear,140,2013-09-21 01:45:00
10:05 PM,60.8,-9999,N/A,30.00,5.0,SSE,8.1,-,N/A,,Haze,160,2013-09-21 02:05:00
10:25 PM,60.8,-9999,N/A,30.00,5.0,SSE,6.9,-,N/A,,Haze,160,2013-09-21 02:25:00
10:45 PM,60.8,-9999,N/A,30.00,5.0,SSE,6.9,-,N/A,,Haze,160,2013-09-21 02:45:00
11:05 PM,60.8,-9999,N/A,29.99,7.0,SSE,8.1,-,N/A,,Clear,160,2013-09-21 03:05:00
11:25 PM,60.8,-9999,N/A,29.99,4.0,SE,8.1,-,N/A,,Haze,140,2013-09-21 03:25:00
11:45 PM,60.8,-9999,N/A,29.99,4.0,South,8.1,-,N/A,,Haze,170,2013-09-21 03:45:00